createdAt,value
2018-06-01T04:27:23.663Z,94829.98
2018-06-01T04:29:51.314Z,94832.14
2018-06-01T04:32:18.818Z,94841.13
2018-06-01T04:34:46.319Z,94835.70
2018-06-01T04:37:13.822Z,94845.50
2018-06-01T04:39:41.359Z,94847.59
2018-06-01T04:42:08.929Z,94848.92
2018-06-01T04:44:36.452Z,94854.98
2018-06-01T04:47:03.962Z,94852.45
2018-06-01T04:49:31.442Z,94858.31
2018-06-01T04:51:58.932Z,94849.83
2018-06-01T04:54:26.478Z,94860.12
2018-06-01T04:56:54.041Z,94865.85
2018-06-01T04:59:21.547Z,94863.64
2018-06-01T05:01:49.052Z,94863.63
2018-06-01T05:04:16.556Z,94867.95
2018-06-01T05:06:44.085Z,94868.48
2018-06-01T05:09:11.615Z,94870.56
2018-06-01T05:11:39.161Z,94872.30
2018-06-01T05:14:06.663Z,94866.02
2018-06-01T05:16:34.214Z,94871.73
2018-06-01T05:19:01.691Z,94882.23
2018-06-01T05:21:29.195Z,94880.52
2018-06-01T05:23:56.700Z,94877.26
2018-06-01T05:26:24.243Z,94884.19
2018-06-01T05:28:51.756Z,94883.15
2018-06-01T05:31:19.266Z,94881.19
2018-06-01T05:33:46.767Z,94887.93
2018-06-01T05:36:14.267Z,94886.48
2018-06-01T05:38:41.781Z,94887.35
2018-06-01T05:41:09.283Z,94892.08
2018-06-01T05:43:36.775Z,94889.52
2018-06-01T05:46:04.399Z,94891.78
2018-06-01T05:48:31.909Z,94892.44
2018-06-01T05:50:59.695Z,94894.92
2018-06-01T05:53:27.185Z,94889.98
2018-06-01T05:55:54.683Z,94898.52
2018-06-01T05:58:22.188Z,94892.88
2018-06-01T06:00:49.698Z,94895.75
2018-06-01T06:03:17.193Z,94898.12
2018-06-01T06:05:44.708Z,94903.80
2018-06-01T06:08:12.384Z,94906.66
2018-06-01T06:10:39.893Z,94905.52
2018-06-01T06:13:07.404Z,94902.00
2018-06-01T06:15:34.927Z,94907.66
2018-06-01T06:18:02.433Z,94908.02
2018-06-01T06:20:30.004Z,94912.42
2018-06-01T06:22:57.554Z,94908.76
2018-06-01T06:25:25.051Z,94912.50
2018-06-01T06:27:52.547Z,94910.92
2018-06-01T06:30:20.051Z,94905.94
2018-06-01T06:32:47.552Z,94901.08
2018-06-01T06:35:15.056Z,94898.02
2018-06-01T06:37:42.555Z,94893.06
2018-06-01T06:40:10.059Z,94893.86
2018-06-01T06:42:37.600Z,94894.48
2018-06-01T06:45:05.104Z,94891.38
2018-06-01T06:47:32.595Z,94891.93
2018-06-01T06:50:00.125Z,94896.84
2018-06-01T06:52:27.631Z,94896.36
2018-06-01T06:54:55.130Z,94891.59
2018-06-01T06:57:22.641Z,94882.06
2018-06-01T06:59:50.166Z,94884.09
2018-06-01T07:02:17.679Z,94882.73
2018-06-01T07:04:45.192Z,94881.53
2018-06-01T07:07:12.688Z,94887.28
2018-06-01T07:09:40.200Z,94885.55
2018-06-01T07:12:07.725Z,94888.20
2018-06-01T07:14:35.228Z,94890.01
2018-06-01T07:17:02.732Z,94885.86
2018-06-01T07:19:30.238Z,94881.19
2018-06-01T07:21:57.737Z,94882.67
2018-06-01T07:24:25.234Z,94881.48
2018-06-01T07:26:52.767Z,94881.52
2018-06-01T07:29:20.268Z,94878.73
2018-06-01T07:31:47.781Z,94879.36
2018-06-01T07:34:15.286Z,94877.22
2018-06-01T07:36:42.819Z,94879.80
2018-06-01T07:39:10.351Z,94879.73
2018-06-01T07:41:37.873Z,94880.16
2018-06-01T07:44:05.366Z,94876.64
2018-06-01T07:46:32.871Z,94873.24
2018-06-01T07:49:00.381Z,94884.01
2018-06-01T07:51:27.886Z,94879.25
2018-06-01T07:53:55.388Z,94881.84
2018-06-01T07:56:22.904Z,94880.37
2018-06-01T07:58:50.409Z,94876.12
2018-06-01T08:01:17.950Z,94877.40
2018-06-01T08:03:45.458Z,94871.75
2018-06-01T08:06:12.998Z,94868.45
2018-06-01T08:08:40.530Z,94868.17
2018-06-01T08:11:08.022Z,94867.10
2018-06-01T08:13:35.566Z,94870.59
2018-06-01T08:16:03.058Z,94872.58
2018-06-01T08:18:30.573Z,94867.52
2018-06-01T08:20:58.088Z,94866.73
2018-06-01T08:23:25.612Z,94873.48
2018-06-01T08:25:53.115Z,94873.84
2018-06-01T08:28:20.625Z,94867.81
2018-06-01T08:30:48.157Z,94871.26
2018-06-01T08:33:15.765Z,94863.20
2018-06-01T08:35:43.315Z,94859.92
2018-06-01T08:38:10.820Z,94870.13
2018-06-01T08:40:38.330Z,94865.66
2018-06-01T08:43:05.847Z,94866.36
2018-06-01T08:45:33.350Z,94866.78
2018-06-01T08:48:00.885Z,94870.42
2018-06-01T08:50:28.383Z,94867.65
2018-06-01T08:52:55.888Z,94869.15
2018-06-01T08:55:23.387Z,94869.34
2018-06-01T08:57:50.880Z,94867.91
2018-06-01T09:00:18.416Z,94863.02
2018-06-01T09:02:45.944Z,94864.37
2018-06-01T09:05:13.610Z,94865.48
2018-06-01T09:07:41.158Z,94856.87
2018-06-01T09:10:08.729Z,94859.26
2018-06-01T09:12:36.243Z,94855.54
2018-06-01T09:15:03.737Z,94857.94
2018-06-01T09:17:31.233Z,94850.05
2018-06-01T09:19:58.779Z,94856.73
2018-06-01T09:22:26.322Z,94856.87
2018-06-01T09:24:53.864Z,94855.53
2018-06-01T09:27:21.383Z,94852.75
2018-06-01T09:29:48.888Z,94844.20
2018-06-01T09:32:16.393Z,94839.27
2018-06-01T09:34:43.977Z,94844.48
2018-06-01T09:37:11.476Z,94854.34
2018-06-01T09:39:39.015Z,94849.25
2018-06-01T09:42:06.519Z,94840.34
2018-06-01T09:44:34.056Z,94836.71
2018-06-01T09:47:01.584Z,94844.24
2018-06-01T09:49:29.110Z,94839.86
2018-06-01T09:51:56.642Z,94836.48
2018-06-01T09:54:24.179Z,94831.88
2018-06-01T09:56:51.696Z,94833.59
2018-06-01T09:59:19.198Z,94829.74
2018-06-01T10:01:46.696Z,94830.11
2018-06-01T10:04:14.186Z,94829.17
2018-06-01T10:06:41.684Z,94832.71
2018-06-01T10:09:09.553Z,94837.38
2018-06-01T10:11:37.784Z,94835.02
2018-06-01T10:14:09.050Z,94831.48
2018-06-01T10:16:38.520Z,94826.52
2018-06-01T10:19:06.520Z,94829.77
2018-06-01T10:21:34.028Z,94823.04
2018-06-01T10:24:01.553Z,94827.28
2018-06-01T10:26:29.111Z,94823.53
2018-06-01T10:28:56.618Z,94831.03
2018-06-01T10:31:24.119Z,94821.15
2018-06-01T10:33:51.609Z,94825.34
2018-06-01T10:36:19.156Z,94819.10
2018-06-01T10:38:46.652Z,94816.69
2018-06-01T10:41:14.153Z,94814.11
2018-06-01T10:43:41.711Z,94805.01
2018-06-01T10:46:09.228Z,94811.06
2018-06-01T10:48:36.741Z,94803.84
2018-06-01T10:51:04.264Z,94815.71
2018-06-01T10:53:31.758Z,94812.73
2018-06-01T10:55:59.363Z,94809.50
2018-06-01T10:58:26.860Z,94806.94
2018-06-01T11:00:54.422Z,94810.49
2018-06-01T11:03:21.915Z,94804.44
2018-06-01T11:05:49.431Z,94802.59
2018-06-01T11:08:16.934Z,94797.94
2018-06-01T11:10:44.496Z,94797.91
2018-06-01T11:13:12.012Z,94797.09
2018-06-01T11:15:39.514Z,94795.06
2018-06-01T11:18:07.017Z,94794.66
2018-06-01T11:20:34.516Z,94785.19
2018-06-01T11:23:02.015Z,94794.87
2018-06-01T11:25:29.542Z,94789.73
2018-06-01T11:27:57.048Z,94789.33
2018-06-01T11:30:24.595Z,94796.13
2018-06-01T11:32:52.095Z,94786.77
2018-06-01T11:35:19.612Z,94792.91
2018-06-01T11:37:47.107Z,94793.08
2018-06-01T11:40:14.600Z,94785.47
2018-06-01T11:42:42.108Z,94779.59
2018-06-01T11:45:09.639Z,94780.39
2018-06-01T11:47:37.175Z,94776.73
2018-06-01T11:50:04.743Z,94785.69
2018-06-01T11:52:32.253Z,94781.73
2018-06-01T11:54:59.789Z,94778.78
2018-06-01T11:57:27.402Z,94782.13
2018-06-01T11:59:54.902Z,94775.73
2018-06-01T12:02:22.418Z,94769.48
2018-06-01T12:04:49.914Z,94767.22
2018-06-01T12:07:17.406Z,94764.67
2018-06-01T12:09:44.924Z,94761.22
2018-06-01T12:12:12.470Z,94764.29
2018-06-01T12:14:40.017Z,94753.46
2018-06-01T12:17:07.523Z,94746.42
2018-06-01T12:19:35.053Z,94745.08
2018-06-01T12:22:02.564Z,94743.42
2018-06-01T12:24:30.068Z,94745.02
2018-06-01T12:26:57.571Z,94750.34
2018-06-01T12:29:25.129Z,94752.09
2018-06-01T12:31:52.594Z,94751.03
2018-06-01T12:34:20.136Z,94752.11
2018-06-01T12:36:47.636Z,94749.33
2018-06-01T12:39:15.127Z,94749.45
2018-06-01T12:41:42.636Z,94744.70
2018-06-01T12:44:10.188Z,94738.26
2018-06-01T12:46:37.702Z,94744.73
2018-06-01T12:49:05.209Z,94747.89
2018-06-01T12:51:32.707Z,94733.98
2018-06-01T12:54:00.203Z,94729.77
2018-06-01T12:56:27.739Z,94739.34
2018-06-01T12:58:55.240Z,94731.55
2018-06-01T13:01:22.749Z,94733.05
2018-06-01T13:03:50.240Z,94730.63
2018-06-01T13:06:17.814Z,94724.26
2018-06-01T13:08:45.312Z,94724.17
2018-06-01T13:11:12.850Z,94716.83
2018-06-01T13:13:40.350Z,94712.27
2018-06-01T13:16:07.846Z,94711.94
2018-06-01T13:18:35.350Z,94705.75
2018-06-01T13:21:02.906Z,94702.70
2018-06-01T13:23:30.407Z,94697.28
2018-06-01T13:25:57.984Z,94702.80
2018-06-01T13:28:25.491Z,94700.62
2018-06-01T13:30:53.045Z,94705.81
2018-06-01T13:33:20.557Z,94712.88
2018-06-01T13:35:48.098Z,94708.73
2018-06-01T13:38:15.600Z,94701.11
2018-06-01T13:40:43.104Z,94699.48
2018-06-01T13:43:10.626Z,94696.25
2018-06-01T13:45:38.122Z,94696.49
2018-06-01T13:48:05.669Z,94696.33
2018-06-01T13:50:33.206Z,94694.30
2018-06-01T13:53:01.455Z,94685.33
2018-06-01T13:55:28.953Z,94681.70
2018-06-01T13:57:56.451Z,94691.82
2018-06-01T14:00:24.024Z,94688.54
2018-06-01T14:02:51.528Z,94692.78
2018-06-01T14:05:19.027Z,94693.58
2018-06-01T14:07:47.311Z,94686.66
2018-06-01T14:10:14.855Z,94686.39
2018-06-01T14:12:42.350Z,94686.31
2018-06-01T14:15:09.845Z,94687.42
2018-06-01T14:17:37.367Z,94680.22
2018-06-01T14:20:04.895Z,94677.36
2018-06-01T14:22:32.454Z,94674.34
2018-06-01T14:25:00.056Z,94667.30
2018-06-01T14:27:27.556Z,94670.35
2018-06-01T14:29:55.060Z,94670.98
2018-06-01T14:32:22.559Z,94674.83
2018-06-01T14:34:50.062Z,94681.55
2018-06-01T14:37:17.562Z,94678.36
2018-06-01T14:39:45.072Z,94674.22
2018-06-01T14:42:12.580Z,94678.88
2018-06-01T14:44:40.076Z,94676.91
2018-06-01T14:47:07.675Z,94680.87
2018-06-01T14:49:35.078Z,94676.86
2018-06-01T14:52:02.647Z,94681.67
2018-06-01T14:54:30.265Z,94677.19
2018-06-01T14:56:57.782Z,94671.98
2018-06-01T14:59:25.319Z,94672.97
2018-06-01T15:01:52.864Z,94675.36
2018-06-01T15:04:20.344Z,94668.78
2018-06-01T15:06:47.850Z,94670.03
2018-06-01T15:09:15.362Z,94675.02
2018-06-01T15:11:42.959Z,94670.45
2018-06-01T15:14:10.479Z,94662.83
2018-06-01T15:16:38.032Z,94666.45
2018-06-01T15:19:05.540Z,94664.78
2018-06-01T15:21:33.033Z,94664.52
2018-06-01T15:24:00.527Z,94662.91
2018-06-01T15:26:28.046Z,94660.20
2018-06-01T15:28:55.562Z,94665.36
2018-06-01T15:31:23.090Z,94667.09
2018-06-01T15:33:50.641Z,94664.12
2018-06-01T15:36:18.200Z,94665.49
2018-06-01T15:38:45.712Z,94667.88
2018-06-01T15:41:13.268Z,94662.61
2018-06-01T15:43:41.439Z,94664.02
2018-06-01T15:46:08.970Z,94667.72
2018-06-01T15:48:36.525Z,94668.72
2018-06-01T15:51:04.044Z,94669.16
2018-06-01T15:53:31.695Z,94664.04
2018-06-01T15:55:59.257Z,94668.31
2018-06-01T15:58:26.761Z,94667.79
2018-06-01T16:00:54.309Z,94662.18
2018-06-01T16:03:21.838Z,94665.25
2018-06-01T16:05:49.348Z,94660.57
2018-06-01T16:08:16.899Z,94668.75
2018-06-01T16:10:44.377Z,94662.55
2018-06-01T16:13:11.904Z,94666.48
2018-06-01T16:15:39.408Z,94660.26
2018-06-01T16:18:06.971Z,94673.48
2018-06-01T16:20:34.509Z,94672.16
2018-06-01T16:23:02.022Z,94673.23
2018-06-01T16:25:29.525Z,94675.06
2018-06-01T16:27:57.038Z,94676.41
2018-06-01T16:30:25.313Z,94680.44
2018-06-01T16:32:52.825Z,94678.69
2018-06-01T16:35:20.421Z,94677.60
2018-06-01T16:37:48.667Z,94680.62
2018-06-01T16:40:18.799Z,94679.27
2018-06-01T16:42:46.318Z,94677.67
2018-06-01T16:45:13.891Z,94680.69
2018-06-01T16:47:41.400Z,94684.44
2018-06-01T16:50:08.910Z,94691.05
2018-06-01T16:52:36.405Z,94697.39
2018-06-01T16:55:03.967Z,94698.17
2018-06-01T16:57:31.514Z,94692.52
2018-06-01T16:59:59.066Z,94694.63
2018-06-01T17:02:26.571Z,94705.69
2018-06-01T17:04:54.157Z,94695.53
2018-06-01T17:07:21.671Z,94701.70
2018-06-01T17:09:49.176Z,94700.77
2018-06-01T17:12:16.683Z,94699.97
2018-06-01T17:14:44.224Z,94699.36
2018-06-01T17:17:11.772Z,94697.73
2018-06-01T17:19:39.328Z,94699.91
2018-06-01T17:22:06.827Z,94700.86
2018-06-01T17:24:34.338Z,94702.14
2018-06-01T17:27:01.888Z,94699.13
2018-06-01T17:29:29.501Z,94694.80
2018-06-01T17:31:57.021Z,94701.70
2018-06-01T17:34:24.558Z,94704.64
2018-06-01T17:36:52.094Z,94710.17
2018-06-01T17:39:19.591Z,94710.09
2018-06-01T17:41:47.088Z,94711.58
2018-06-01T17:44:14.644Z,94718.04
2018-06-01T17:46:42.127Z,94718.78
2018-06-01T17:49:09.636Z,94723.60
2018-06-01T17:51:37.152Z,94727.36
2018-06-01T17:54:04.710Z,94724.88
2018-06-01T17:56:32.310Z,94726.47
2018-06-01T17:58:59.877Z,94729.03
2018-06-01T18:01:28.296Z,94736.28
2018-06-01T18:03:55.795Z,94737.52
2018-06-01T18:06:23.295Z,94745.70
2018-06-01T18:08:50.830Z,94742.42
2018-06-01T18:11:18.370Z,94746.97
2018-06-01T18:13:45.919Z,94740.95
2018-06-01T18:16:13.431Z,94744.30
2018-06-01T18:18:40.935Z,94742.06
2018-06-01T18:21:08.518Z,94749.42
2018-06-01T18:23:36.032Z,94748.77
2018-06-01T18:26:03.560Z,94752.61
2018-06-01T18:28:31.054Z,94752.39
2018-06-01T18:30:58.574Z,94757.06
2018-06-01T18:33:26.130Z,94761.20
2018-06-01T18:35:53.646Z,94762.53
2018-06-01T18:38:21.155Z,94760.14
2018-06-01T18:40:48.706Z,94764.11
2018-06-01T18:43:16.256Z,94762.23
2018-06-01T18:45:43.792Z,94770.22
2018-06-01T18:48:12.135Z,94774.48
2018-06-01T18:50:39.647Z,94774.33
2018-06-01T18:53:07.158Z,94774.73
2018-06-01T18:55:34.660Z,94786.05
2018-06-01T18:58:02.203Z,94781.38
2018-06-01T19:00:29.735Z,94783.77
2018-06-01T19:02:57.234Z,94792.66
2018-06-01T19:05:24.736Z,94792.14
2018-06-01T19:07:52.398Z,94793.84
2018-06-01T19:10:19.904Z,94792.94
2018-06-01T19:12:47.412Z,94793.36
2018-06-01T19:15:14.929Z,94797.44
2018-06-01T19:17:42.431Z,94801.23
2018-06-01T19:20:10.821Z,94807.92
2018-06-01T19:22:38.328Z,94809.61
2018-06-01T19:25:05.897Z,94810.63
2018-06-01T19:27:33.436Z,94810.64
2018-06-01T19:30:00.956Z,94813.78
2018-06-01T19:32:28.469Z,94820.09
2018-06-01T19:34:56.083Z,94822.39
2018-06-01T19:37:24.548Z,94824.56
2018-06-01T19:39:52.098Z,94825.78
2018-06-01T19:42:19.632Z,94824.50
2018-06-01T19:44:47.182Z,94826.06
2018-06-01T19:47:14.732Z,94827.38
2018-06-01T19:49:42.235Z,94829.27
2018-06-01T19:52:09.811Z,94829.20
2018-06-01T19:54:37.326Z,94829.71
2018-06-01T19:57:04.855Z,94835.00
2018-06-01T19:59:32.468Z,94828.79
2018-06-01T20:01:59.995Z,94831.53
2018-06-01T20:04:28.609Z,94831.63
2018-06-01T20:06:56.516Z,94822.42
2018-06-01T20:09:25.308Z,94824.17
2018-06-01T20:11:54.056Z,94828.20
2018-06-01T20:14:21.681Z,94826.73
2018-06-01T20:16:49.221Z,94827.07
2018-06-01T20:19:16.743Z,94831.50
2018-06-01T20:21:46.424Z,94828.98
2018-06-01T20:24:13.998Z,94831.80
2018-06-01T20:26:42.627Z,94835.28
2018-06-01T20:29:10.504Z,94835.68
2018-06-01T20:31:38.004Z,94842.97
2018-06-01T20:34:05.525Z,94839.88
2018-06-01T20:36:33.032Z,94843.69
2018-06-01T20:39:00.563Z,94843.55
2018-06-01T20:41:28.059Z,94844.05
2018-06-01T20:43:55.775Z,94841.17
2018-06-01T20:46:23.314Z,94842.47
2018-06-01T20:48:50.836Z,94836.31
2018-06-01T20:51:18.364Z,94835.17
2018-06-01T20:53:45.858Z,94833.09
2018-06-01T20:56:13.492Z,94834.66
2018-06-01T20:58:41.015Z,94826.64
2018-06-01T21:01:08.523Z,94823.50
2018-06-01T21:03:36.043Z,94828.55
2018-06-01T21:06:03.609Z,94829.26
2018-06-01T21:08:31.119Z,94829.80
2018-06-01T21:10:58.631Z,94833.70
2018-06-01T21:13:26.128Z,94839.68
2018-06-01T21:15:53.645Z,94841.42
2018-06-01T21:18:21.181Z,94844.44
2018-06-01T21:20:48.684Z,94844.11
2018-06-01T21:23:16.182Z,94853.52
2018-06-01T21:25:43.703Z,94852.58
2018-06-01T21:28:11.207Z,94857.66
2018-06-01T21:30:38.784Z,94858.91
2018-06-01T21:33:06.296Z,94857.22
2018-06-01T21:35:33.836Z,94859.51
2018-06-01T21:38:01.360Z,94853.98
2018-06-01T21:40:28.915Z,94858.47
2018-06-01T21:42:57.344Z,94864.95
2018-06-01T21:45:24.867Z,94868.75
2018-06-01T21:47:52.382Z,94870.55
2018-06-01T21:50:19.900Z,94869.92
2018-06-01T21:52:47.395Z,94872.67
2018-06-01T21:55:14.967Z,94867.05
2018-06-01T21:57:42.502Z,94873.95
2018-06-01T22:00:10.143Z,94868.64
2018-06-01T22:02:37.654Z,94873.84
2018-06-01T22:05:05.991Z,94873.69
2018-06-01T22:07:33.507Z,94871.92
2018-06-01T22:10:01.063Z,94877.88
2018-06-01T22:12:28.661Z,94869.20
2018-06-01T22:14:56.176Z,94870.67
2018-06-01T22:17:23.811Z,94870.42
2018-06-01T22:19:51.363Z,94874.00
2018-06-01T22:22:18.926Z,94872.97
2018-06-01T22:24:46.454Z,94880.38
2018-06-01T22:27:13.998Z,94880.91
2018-06-01T22:29:41.541Z,94884.83
2018-06-01T22:32:09.114Z,94886.34
2018-06-01T22:34:36.657Z,94881.25
2018-06-01T22:37:04.201Z,94888.34
2018-06-01T22:39:31.721Z,94881.92
2018-06-01T22:41:59.233Z,94886.36
2018-06-01T22:44:26.800Z,94884.72
2018-06-01T22:46:54.317Z,94880.56
2018-06-01T22:49:21.835Z,94876.88
2018-06-01T22:51:49.374Z,94882.00
2018-06-01T22:54:16.904Z,94889.36
2018-06-01T22:56:44.416Z,94891.99
2018-06-01T22:59:11.937Z,94881.78
2018-06-01T23:01:39.460Z,94888.59
2018-06-01T23:04:06.966Z,94885.06
2018-06-01T23:06:34.468Z,94887.77
2018-06-01T23:09:01.974Z,94906.44
2018-06-01T23:11:29.524Z,94897.67
2018-06-01T23:13:57.036Z,94894.25
2018-06-01T23:16:24.531Z,94896.92
2018-06-01T23:18:52.069Z,94896.66
2018-06-01T23:21:19.568Z,94890.56
2018-06-01T23:23:47.120Z,94893.56
2018-06-01T23:26:14.615Z,94895.34
2018-06-01T23:28:42.110Z,94884.46
2018-06-01T23:31:09.794Z,94880.80
2018-06-01T23:33:37.328Z,94873.70
2018-06-01T23:36:04.828Z,94865.55
2018-06-01T23:38:32.328Z,94876.84
2018-06-01T23:40:59.841Z,94871.47
2018-06-01T23:43:27.352Z,94870.91
2018-06-01T23:45:54.873Z,94865.45
2018-06-01T23:48:22.387Z,94869.83
2018-06-01T23:53:26.996Z,94856.13
2018-06-01T23:55:54.510Z,94860.14
2018-06-01T23:58:22.032Z,94859.39
